TimeEST,TemperatureF,Dew PointF,Humidity,Sea Level PressureIn,VisibilityMPH,Wind Direction,Wind SpeedMPH,Gust SpeedMPH,PrecipitationIn,Events,Conditions,WindDirDegrees,DateUTC
12:53 AM,28.0,7.0,41,30.38,10.0,Calm,Calm,-,N/A,,Clear,0,2008-01-22 05:53:00
1:53 AM,25.0,7.0,46,30.35,10.0,Calm,Calm,-,N/A,,Mostly Cloudy,0,2008-01-22 06:53:00
2:53 AM,28.9,5.0,36,30.31,10.0,South,3.5,-,N/A,,Clear,180,2008-01-22 07:53:00
3:53 AM,30.9,1.9,29,30.26,10.0,Variable,3.5,-,N/A,,Mostly Cloudy,0,2008-01-22 08:53:00
4:53 AM,34.0,1.9,26,30.22,10.0,South,5.8,-,N/A,,Overcast,180,2008-01-22 09:53:00
5:53 AM,35.1,1.9,25,30.21,10.0,SSW,5.8,-,N/A,,Partly Cloudy,200,2008-01-22 10:53:00
6:53 AM,35.1,8.1,33,30.21,10.0,SSW,6.9,-,N/A,,Mostly Cloudy,200,2008-01-22 11:53:00
7:53 AM,37.0,16.0,42,30.20,10.0,SW,5.8,-,N/A,,Overcast,220,2008-01-22 12:53:00
8:53 AM,39.0,19.9,46,30.19,10.0,SW,12.7,27.6,N/A,,Overcast,220,2008-01-22 13:53:00
9:18 AM,37.4,24.8,60,30.15,3.0,SSW,12.7,26.5,0.00,Snow,Light Snow,210,2008-01-22 14:18:00
9:22 AM,35.6,24.8,65,30.16,1.8,SSW,13.8,31.1,0.00,Snow,Light Snow,210,2008-01-22 14:22:00
9:36 AM,33.8,28.4,81,30.16,1.0,SW,9.2,25.3,0.00,Snow,Light Snow,230,2008-01-22 14:36:00
9:53 AM,34.0,28.9,82,30.22,1.2,SSW,10.4,19.6,0.00,Snow,Light Snow,200,2008-01-22 14:53:00
10:17 AM,33.8,30.2,87,30.16,0.8,SSW,9.2,16.1,0.01,Snow,Light Snow,200,2008-01-22 15:17:00
10:28 AM,33.8,30.2,87,30.16,0.5,SW,10.4,18.4,0.02,Fog-Snow,Light Snow,220,2008-01-22 15:28:00
10:53 AM,32.0,30.0,92,30.19,0.8,SSW,5.8,-,0.03,Snow,Light Snow,200,2008-01-22 15:53:00
11:20 AM,33.8,30.2,87,30.13,1.2,SSW,9.2,-,0.02,Snow,Light Snow,210,2008-01-22 16:20:00
11:30 AM,33.8,30.2,87,30.12,3.0,SSW,6.9,-,0.02,Snow,Light Snow,210,2008-01-22 16:30:00
11:53 AM,34.0,30.9,89,30.15,2.5,SW,8.1,19.6,0.02,Snow,Light Snow,220,2008-01-22 16:53:00
12:01 PM,33.8,30.2,87,30.10,5.0,SSW,9.2,17.3,0.00,Snow,Light Snow,210,2008-01-22 17:01:00
12:53 PM,34.0,30.9,89,30.09,5.0,SSW,12.7,-,0.01,Rain,Light Rain,200,2008-01-22 17:53:00
1:53 PM,35.1,32.0,89,30.07,5.0,SSW,12.7,19.6,0.00,Rain,Light Rain,210,2008-01-22 18:53:00
2:53 PM,36.0,32.0,86,30.04,8.0,SSW,10.4,18.4,0.00,Rain,Light Rain,210,2008-01-22 19:53:00
3:53 PM,37.0,32.0,82,30.02,7.0,SSW,11.5,20.7,0.00,,Light Drizzle,210,2008-01-22 20:53:00
4:53 PM,37.0,33.1,86,30.00,6.0,SW,9.2,19.6,0.00,,Light Drizzle,220,2008-01-22 21:53:00
5:53 PM,35.1,33.1,92,30.02,4.0,Variable,4.6,-,0.02,,Light Drizzle,0,2008-01-22 22:53:00
6:51 PM,35.6,32.0,87,30.00,6.0,Variable,5.8,-,0.00,,Light Drizzle,0,2008-01-22 23:51:00
6:53 PM,35.1,32.0,89,30.04,6.0,SW,6.9,-,0.00,,Light Drizzle,230,2008-01-22 23:53:00
7:02 PM,35.6,32.0,87,30.00,7.0,WSW,3.5,-,0.01,,Light Drizzle,240,2008-01-23 00:02:00
7:12 PM,35.6,32.0,87,30.00,6.0,Variable,3.5,-,0.01,,Light Drizzle,0,2008-01-23 00:12:00
7:53 PM,34.0,30.9,89,30.04,4.0,Variable,4.6,-,0.02,Rain-Snow,Snow,0,2008-01-23 00:53:00
8:20 PM,33.8,30.2,87,30.01,2.5,West,4.6,-,0.01,Snow,Light Snow,280,2008-01-23 01:20:00
8:28 PM,33.8,30.2,87,30.01,2.5,Calm,Calm,-,0.01,Snow,Light Snow,0,2008-01-23 01:28:00
8:37 PM,33.8,30.2,87,30.02,2.5,Calm,Calm,-,0.01,Snow,Light Snow,0,2008-01-23 01:37:00
8:48 PM,33.8,30.2,87,30.02,2.5,West,3.5,-,0.02,Snow,Light Snow,260,2008-01-23 01:48:00
8:53 PM,33.1,30.0,89,30.05,3.0,WSW,4.6,-,0.02,Snow,Light Snow,250,2008-01-23 01:53:00
9:53 PM,33.1,28.9,85,30.06,9.0,Variable,5.8,-,0.00,,Overcast,0,2008-01-23 02:53:00
10:20 PM,33.8,28.4,81,30.03,10.0,Variable,3.5,-,N/A,,Overcast,0,2008-01-23 03:20:00
10:49 PM,33.8,28.4,81,30.03,7.0,West,3.5,-,0.00,Snow,Light Snow,270,2008-01-23 03:49:00
10:53 PM,33.1,28.0,82,30.07,6.0,Variable,4.6,-,0.00,Snow,Light Snow,0,2008-01-23 03:53:00
11:53 PM,32.0,24.1,73,30.08,10.0,West,10.4,21.9,0.00,,Overcast,270,2008-01-23 04:53:00